sensor_id;sensor_type;location;lat;lon;timestamp;temperature;humidity
55721;DHT22;41626;53.098;6.168;2022-11-15T00:00:21;7.00;99.90
55721;DHT22;41626;53.098;6.168;2022-11-15T00:02:47;6.90;99.90
55721;DHT22;41626;53.098;6.168;2022-11-15T00:05:13;6.80;99.90
55721;DHT22;41626;53.098;6.168;2022-11-15T00:07:39;6.90;99.90
55721;DHT22;41626;53.098;6.168;2022-11-15T00:10:05;6.80;99.90
55721;DHT22;41626;53.098;6.168;2022-11-15T00:12:31;6.80;99.90
55721;DHT22;41626;53.098;6.168;2022-11-15T00:14:56;6.90;99.90
55721;DHT22;41626;53.098;6.168;2022-11-15T00:17:22;6.90;99.90
55721;DHT22;41626;53.098;6.168;2022-11-15T00:19:47;6.90;99.90
55721;DHT22;41626;53.098;6.168;2022-11-15T00:22:14;6.80;99.90
55721;DHT22;41626;53.098;6.168;2022-11-15T00:24:40;7.00;99.90
55721;DHT22;41626;53.098;6.168;2022-11-15T00:27:05;7.00;99.90
55721;DHT22;41626;53.098;6.168;2022-11-15T00:29:31;7.10;99.90
55721;DHT22;41626;53.098;6.168;2022-11-15T00:31:56;7.10;99.90
55721;DHT22;41626;53.098;6.168;2022-11-15T00:34:22;7.00;99.90
55721;DHT22;41626;53.098;6.168;2022-11-15T00:36:48;7.00;99.90
55721;DHT22;41626;53.098;6.168;2022-11-15T00:39:13;7.10;99.90
55721;DHT22;41626;53.098;6.168;2022-11-15T00:41:39;7.10;99.90
55721;DHT22;41626;53.098;6.168;2022-11-15T00:44:04;7.20;99.90
55721;DHT22;41626;53.098;6.168;2022-11-15T00:46:30;7.30;99.90
55721;DHT22;41626;53.098;6.168;2022-11-15T00:48:56;7.30;99.90
55721;DHT22;41626;53.098;6.168;2022-11-15T00:51:21;7.30;99.90
55721;DHT22;41626;53.098;6.168;2022-11-15T00:53:47;7.20;99.90
55721;DHT22;41626;53.098;6.168;2022-11-15T00:56:12;7.40;99.90
55721;DHT22;41626;53.098;6.168;2022-11-15T00:58:38;7.20;99.90
55721;DHT22;41626;53.098;6.168;2022-11-15T01:01:09;7.20;99.90
55721;DHT22;41626;53.098;6.168;2022-11-15T01:03:36;7.20;99.90
55721;DHT22;41626;53.098;6.168;2022-11-15T01:06:02;7.20;99.90
55721;DHT22;41626;53.098;6.168;2022-11-15T01:08:28;7.20;99.90
55721;DHT22;41626;53.098;6.168;2022-11-15T01:10:54;7.20;99.90
55721;DHT22;41626;53.098;6.168;2022-11-15T01:13:19;7.20;99.90
55721;DHT22;41626;53.098;6.168;2022-11-15T01:15:45;7.30;99.90
55721;DHT22;41626;53.098;6.168;2022-11-15T01:18:10;7.20;99.90
55721;DHT22;41626;53.098;6.168;2022-11-15T01:20:40;7.20;99.90
55721;DHT22;41626;53.098;6.168;2022-11-15T01:23:06;7.10;99.90
55721;DHT22;41626;53.098;6.168;2022-11-15T01:25:32;7.10;99.90
55721;DHT22;41626;53.098;6.168;2022-11-15T01:27:57;7.10;99.90
55721;DHT22;41626;53.098;6.168;2022-11-15T01:30:23;7.00;99.90
55721;DHT22;41626;53.098;6.168;2022-11-15T01:32:48;7.00;99.90
55721;DHT22;41626;53.098;6.168;2022-11-15T01:35:14;7.00;99.90
55721;DHT22;41626;53.098;6.168;2022-11-15T01:37:40;6.90;99.90
55721;DHT22;41626;53.098;6.168;2022-11-15T01:40:05;6.90;99.90
55721;DHT22;41626;53.098;6.168;2022-11-15T01:42:31;6.80;99.90
55721;DHT22;41626;53.098;6.168;2022-11-15T01:44:57;6.80;99.90
55721;DHT22;41626;53.098;6.168;2022-11-15T01:47:28;6.80;99.90
55721;DHT22;41626;53.098;6.168;2022-11-15T01:50:08;6.90;99.90
55721;DHT22;41626;53.098;6.168;2022-11-15T01:52:35;6.90;99.90
55721;DHT22;41626;53.098;6.168;2022-11-15T01:55:25;6.80;99.90
55721;DHT22;41626;53.098;6.168;2022-11-15T01:57:57;7.00;99.90
55721;DHT22;41626;53.098;6.168;2022-11-15T02:00:23;7.00;99.90
55721;DHT22;41626;53.098;6.168;2022-11-15T02:02:49;7.00;99.90
55721;DHT22;41626;53.098;6.168;2022-11-15T02:05:15;6.90;99.90
55721;DHT22;41626;53.098;6.168;2022-11-15T02:07:41;6.90;99.90
55721;DHT22;41626;53.098;6.168;2022-11-15T02:12:45;6.90;99.90
55721;DHT22;41626;53.098;6.168;2022-11-15T02:15:11;7.00;99.90
55721;DHT22;41626;53.098;6.168;2022-11-15T02:18:03;6.80;99.90
55721;DHT22;41626;53.098;6.168;2022-11-15T02:23:23;6.90;99.90
55721;DHT22;41626;53.098;6.168;2022-11-15T02:26:28;6.90;99.90
55721;DHT22;41626;53.098;6.168;2022-11-15T02:29:08;6.80;99.90
55721;DHT22;41626;53.098;6.168;2022-11-15T02:31:51;6.80;99.90
55721;DHT22;41626;53.098;6.168;2022-11-15T02:34:32;6.90;99.90
55721;DHT22;41626;53.098;6.168;2022-11-15T02:39:46;6.90;99.90
55721;DHT22;41626;53.098;6.168;2022-11-15T02:42:19;6.80;99.90
55721;DHT22;41626;53.098;6.168;2022-11-15T02:45:07;6.90;99.90
55721;DHT22;41626;53.098;6.168;2022-11-15T02:47:41;6.90;99.90
55721;DHT22;41626;53.098;6.168;2022-11-15T02:50:13;6.80;99.90
55721;DHT22;41626;53.098;6.168;2022-11-15T02:52:44;6.90;99.90
55721;DHT22;41626;53.098;6.168;2022-11-15T02:55:31;6.80;99.90
55721;DHT22;41626;53.098;6.168;2022-11-15T03:01:07;6.90;99.90
55721;DHT22;41626;53.098;6.168;2022-11-15T03:04:02;6.80;99.90
55721;DHT22;41626;53.098;6.168;2022-11-15T03:06:35;7.00;99.90
55721;DHT22;41626;53.098;6.168;2022-11-15T03:09:09;7.00;99.90
55721;DHT22;41626;53.098;6.168;2022-11-15T03:11:44;6.90;99.90
55721;DHT22;41626;53.098;6.168;2022-11-15T03:14:37;7.00;99.90
55721;DHT22;41626;53.098;6.168;2022-11-15T03:19:51;6.90;99.90
55721;DHT22;41626;53.098;6.168;2022-11-15T03:22:22;7.00;99.90
55721;DHT22;41626;53.098;6.168;2022-11-15T03:24:53;6.90;99.90
55721;DHT22;41626;53.098;6.168;2022-11-15T03:27:23;7.00;99.90
55721;DHT22;41626;53.098;6.168;2022-11-15T03:29:54;7.10;99.90
55721;DHT22;41626;53.098;6.168;2022-11-15T03:32:25;6.90;99.90
55721;DHT22;41626;53.098;6.168;2022-11-15T03:35:05;7.10;99.90
55721;DHT22;41626;53.098;6.168;2022-11-15T03:37:45;7.20;99.90
55721;DHT22;41626;53.098;6.168;2022-11-15T03:40:11;7.00;99.90
55721;DHT22;41626;53.098;6.168;2022-11-15T03:42:52;7.10;99.90
55721;DHT22;41626;53.098;6.168;2022-11-15T03:45:39;6.90;99.90
55721;DHT22;41626;53.098;6.168;2022-11-15T03:48:17;7.20;99.90
55721;DHT22;41626;53.098;6.168;2022-11-15T03:50:45;7.00;99.90
55721;DHT22;41626;53.098;6.168;2022-11-15T03:53:12;6.90;99.90
55721;DHT22;41626;53.098;6.168;2022-11-15T03:55:37;7.00;99.90
55721;DHT22;41626;53.098;6.168;2022-11-15T03:58:03;7.30;99.90
55721;DHT22;41626;53.098;6.168;2022-11-15T04:00:29;7.10;99.90
55721;DHT22;41626;53.098;6.168;2022-11-15T04:02:55;7.40;99.90
55721;DHT22;41626;53.098;6.168;2022-11-15T04:05:21;7.40;99.90
55721;DHT22;41626;53.098;6.168;2022-11-15T04:07:46;7.10;99.90
55721;DHT22;41626;53.098;6.168;2022-11-15T04:10:12;7.10;99.90
55721;DHT22;41626;53.098;6.168;2022-11-15T04:12:41;7.50;99.90
55721;DHT22;41626;53.098;6.168;2022-11-15T04:15:12;7.50;99.90
55721;DHT22;41626;53.098;6.168;2022-11-15T04:17:43;7.20;99.90
55721;DHT22;41626;53.098;6.168;2022-11-15T04:20:30;7.30;99.90
55721;DHT22;41626;53.098;6.168;2022-11-15T04:23:20;7.20;99.90
55721;DHT22;41626;53.098;6.168;2022-11-15T04:26:10;7.30;99.90
55721;DHT22;41626;53.098;6.168;2022-11-15T04:28:37;7.20;99.90
55721;DHT22;41626;53.098;6.168;2022-11-15T04:31:21;7.60;99.90
55721;DHT22;41626;53.098;6.168;2022-11-15T04:33:47;7.60;99.90
55721;DHT22;41626;53.098;6.168;2022-11-15T04:36:12;7.70;99.90
55721;DHT22;41626;53.098;6.168;2022-11-15T04:38:56;7.30;99.90
55721;DHT22;41626;53.098;6.168;2022-11-15T04:41:22;7.60;99.90
55721;DHT22;41626;53.098;6.168;2022-11-15T04:43:48;7.70;99.90
55721;DHT22;41626;53.098;6.168;2022-11-15T04:46:13;7.30;99.90
55721;DHT22;41626;53.098;6.168;2022-11-15T04:48:39;7.60;99.90
55721;DHT22;41626;53.098;6.168;2022-11-15T04:51:04;7.30;99.90
55721;DHT22;41626;53.098;6.168;2022-11-15T04:53:30;7.80;99.90
55721;DHT22;41626;53.098;6.168;2022-11-15T04:55:56;7.70;99.90
55721;DHT22;41626;53.098;6.168;2022-11-15T04:58:21;7.40;99.90
55721;DHT22;41626;53.098;6.168;2022-11-15T05:00:47;7.50;99.90
55721;DHT22;41626;53.098;6.168;2022-11-15T05:03:12;7.70;99.90
55721;DHT22;41626;53.098;6.168;2022-11-15T05:05:58;8.00;99.90
55721;DHT22;41626;53.098;6.168;2022-11-15T05:08:24;8.10;99.90
55721;DHT22;41626;53.098;6.168;2022-11-15T05:10:50;7.90;99.90
55721;DHT22;41626;53.098;6.168;2022-11-15T05:13:16;7.70;99.90
55721;DHT22;41626;53.098;6.168;2022-11-15T05:15:42;7.60;99.90
55721;DHT22;41626;53.098;6.168;2022-11-15T05:18:07;8.20;99.90
55721;DHT22;41626;53.098;6.168;2022-11-15T05:20:33;7.70;99.90
55721;DHT22;41626;53.098;6.168;2022-11-15T05:22:59;8.30;99.90
55721;DHT22;41626;53.098;6.168;2022-11-15T05:25:25;8.30;99.90
55721;DHT22;41626;53.098;6.168;2022-11-15T05:27:51;7.70;99.90
55721;DHT22;41626;53.098;6.168;2022-11-15T05:30:17;8.40;99.90
55721;DHT22;41626;53.098;6.168;2022-11-15T05:32:43;8.40;99.90
55721;DHT22;41626;53.098;6.168;2022-11-15T05:35:12;7.90;99.90
55721;DHT22;41626;53.098;6.168;2022-11-15T05:37:40;8.50;99.90
55721;DHT22;41626;53.098;6.168;2022-11-15T05:40:07;8.30;99.90
55721;DHT22;41626;53.098;6.168;2022-11-15T05:42:32;8.00;99.90
55721;DHT22;41626;53.098;6.168;2022-11-15T05:44:59;8.70;99.90
55721;DHT22;41626;53.098;6.168;2022-11-15T05:47:29;8.00;99.90
55721;DHT22;41626;53.098;6.168;2022-11-15T05:49:56;8.70;99.90
55721;DHT22;41626;53.098;6.168;2022-11-15T05:52:25;8.60;99.90
55721;DHT22;41626;53.098;6.168;2022-11-15T05:54:53;8.40;99.90
55721;DHT22;41626;53.098;6.168;2022-11-15T05:57:19;9.00;99.90
55721;DHT22;41626;53.098;6.168;2022-11-15T05:59:44;9.00;99.90
55721;DHT22;41626;53.098;6.168;2022-11-15T06:02:10;8.30;99.90
55721;DHT22;41626;53.098;6.168;2022-11-15T06:04:36;8.40;99.90
55721;DHT22;41626;53.098;6.168;2022-11-15T06:07:02;9.10;99.90
55721;DHT22;41626;53.098;6.168;2022-11-15T06:09:27;9.30;99.90
55721;DHT22;41626;53.098;6.168;2022-11-15T06:11:53;9.30;99.90
55721;DHT22;41626;53.098;6.168;2022-11-15T06:14:19;8.50;99.90
55721;DHT22;41626;53.098;6.168;2022-11-15T06:16:45;8.80;99.90
55721;DHT22;41626;53.098;6.168;2022-11-15T06:19:10;8.80;99.90
55721;DHT22;41626;53.098;6.168;2022-11-15T06:21:36;8.50;99.90
55721;DHT22;41626;53.098;6.168;2022-11-15T06:24:01;9.30;99.90
55721;DHT22;41626;53.098;6.168;2022-11-15T06:26:27;9.40;99.90
55721;DHT22;41626;53.098;6.168;2022-11-15T06:28:53;8.80;99.90
55721;DHT22;41626;53.098;6.168;2022-11-15T06:31:18;8.60;99.90
55721;DHT22;41626;53.098;6.168;2022-11-15T06:33:44;9.60;99.90
55721;DHT22;41626;53.098;6.168;2022-11-15T06:36:11;8.80;99.90
55721;DHT22;41626;53.098;6.168;2022-11-15T06:38:42;8.70;99.90
55721;DHT22;41626;53.098;6.168;2022-11-15T06:41:09;9.60;99.90
55721;DHT22;41626;53.098;6.168;2022-11-15T06:43:36;9.20;99.90
55721;DHT22;41626;53.098;6.168;2022-11-15T06:46:03;9.50;99.90
55721;DHT22;41626;53.098;6.168;2022-11-15T06:48:30;9.40;99.90
55721;DHT22;41626;53.098;6.168;2022-11-15T06:50:58;9.60;99.90
55721;DHT22;41626;53.098;6.168;2022-11-15T06:53:24;9.90;99.90
55721;DHT22;41626;53.098;6.168;2022-11-15T06:55:50;8.80;99.90
55721;DHT22;41626;53.098;6.168;2022-11-15T06:58:16;9.10;99.90
55721;DHT22;41626;53.098;6.168;2022-11-15T07:00:42;9.90;99.90
55721;DHT22;41626;53.098;6.168;2022-11-15T07:03:08;9.50;99.90
55721;DHT22;41626;53.098;6.168;2022-11-15T07:05:34;9.90;99.90
55721;DHT22;41626;53.098;6.168;2022-11-15T07:08:00;9.20;99.90
55721;DHT22;41626;53.098;6.168;2022-11-15T07:10:26;10.00;99.90
55721;DHT22;41626;53.098;6.168;2022-11-15T07:12:53;9.50;99.90
55721;DHT22;41626;53.098;6.168;2022-11-15T07:15:21;10.00;99.90
55721;DHT22;41626;53.098;6.168;2022-11-15T07:17:47;10.00;99.90
55721;DHT22;41626;53.098;6.168;2022-11-15T07:20:13;9.10;99.90
55721;DHT22;41626;53.098;6.168;2022-11-15T07:22:40;9.20;99.90
55721;DHT22;41626;53.098;6.168;2022-11-15T07:25:06;9.20;99.90
55721;DHT22;41626;53.098;6.168;2022-11-15T07:27:32;10.00;99.90
55721;DHT22;41626;53.098;6.168;2022-11-15T07:29:57;10.20;99.90
55721;DHT22;41626;53.098;6.168;2022-11-15T07:32:23;10.10;99.90
55721;DHT22;41626;53.098;6.168;2022-11-15T07:34:49;9.80;99.90
55721;DHT22;41626;53.098;6.168;2022-11-15T07:37:14;10.00;99.90
55721;DHT22;41626;53.098;6.168;2022-11-15T07:39:40;9.70;99.90
55721;DHT22;41626;53.098;6.168;2022-11-15T07:42:06;9.60;99.90
55721;DHT22;41626;53.098;6.168;2022-11-15T07:44:50;9.90;99.90
55721;DHT22;41626;53.098;6.168;2022-11-15T07:47:15;10.50;99.90
55721;DHT22;41626;53.098;6.168;2022-11-15T07:49:41;9.80;99.90
55721;DHT22;41626;53.098;6.168;2022-11-15T07:52:07;9.40;99.90
55721;DHT22;41626;53.098;6.168;2022-11-15T07:54:32;10.50;99.90
55721;DHT22;41626;53.098;6.168;2022-11-15T07:56:58;9.60;99.90
55721;DHT22;41626;53.098;6.168;2022-11-15T07:59:23;9.50;99.90
55721;DHT22;41626;53.098;6.168;2022-11-15T08:01:49;9.50;99.90
55721;DHT22;41626;53.098;6.168;2022-11-15T08:04:15;10.30;99.90
55721;DHT22;41626;53.098;6.168;2022-11-15T08:06:40;9.70;99.90
55721;DHT22;41626;53.098;6.168;2022-11-15T08:09:06;10.30;99.90
55721;DHT22;41626;53.098;6.168;2022-11-15T08:11:32;9.70;99.90
55721;DHT22;41626;53.098;6.168;2022-11-15T08:13:58;10.40;99.90
55721;DHT22;41626;53.098;6.168;2022-11-15T08:16:24;10.40;99.90
55721;DHT22;41626;53.098;6.168;2022-11-15T08:18:49;10.60;99.90
55721;DHT22;41626;53.098;6.168;2022-11-15T08:21:18;10.40;99.90
55721;DHT22;41626;53.098;6.168;2022-11-15T08:23:44;9.90;99.90
55721;DHT22;41626;53.098;6.168;2022-11-15T08:26:10;10.00;99.90
55721;DHT22;41626;53.098;6.168;2022-11-15T08:28:35;10.60;99.90
55721;DHT22;41626;53.098;6.168;2022-11-15T08:31:01;10.00;99.90
55721;DHT22;41626;53.098;6.168;2022-11-15T08:33:28;10.10;99.90
55721;DHT22;41626;53.098;6.168;2022-11-15T08:35:56;10.80;99.90
55721;DHT22;41626;53.098;6.168;2022-11-15T08:38:22;10.50;99.90
55721;DHT22;41626;53.098;6.168;2022-11-15T08:40:50;10.90;99.90
55721;DHT22;41626;53.098;6.168;2022-11-15T08:43:16;10.50;99.90
55721;DHT22;41626;53.098;6.168;2022-11-15T08:45:41;10.10;99.90
55721;DHT22;41626;53.098;6.168;2022-11-15T08:48:07;10.90;99.90
55721;DHT22;41626;53.098;6.168;2022-11-15T08:50:33;10.40;99.90
55721;DHT22;41626;53.098;6.168;2022-11-15T08:53:07;10.40;99.90
55721;DHT22;41626;53.098;6.168;2022-11-15T08:55:36;10.30;99.90
55721;DHT22;41626;53.098;6.168;2022-11-15T08:58:02;11.00;99.90
55721;DHT22;41626;53.098;6.168;2022-11-15T09:00:28;10.90;99.90
55721;DHT22;41626;53.098;6.168;2022-11-15T09:02:54;11.00;99.90
55721;DHT22;41626;53.098;6.168;2022-11-15T09:05:19;10.40;99.90
55721;DHT22;41626;53.098;6.168;2022-11-15T09:07:45;11.20;99.90
55721;DHT22;41626;53.098;6.168;2022-11-15T09:10:11;10.50;99.90
55721;DHT22;41626;53.098;6.168;2022-11-15T09:12:36;10.80;99.90
55721;DHT22;41626;53.098;6.168;2022-11-15T09:15:03;11.10;99.90
55721;DHT22;41626;53.098;6.168;2022-11-15T09:17:30;11.20;99.90
55721;DHT22;41626;53.098;6.168;2022-11-15T09:19:56;10.60;99.90
55721;DHT22;41626;53.098;6.168;2022-11-15T09:22:21;10.80;99.90
55721;DHT22;41626;53.098;6.168;2022-11-15T09:24:47;11.10;99.90
55721;DHT22;41626;53.098;6.168;2022-11-15T09:27:12;10.70;99.90
55721;DHT22;41626;53.098;6.168;2022-11-15T09:29:38;10.70;99.90
55721;DHT22;41626;53.098;6.168;2022-11-15T09:32:04;11.20;99.90
55721;DHT22;41626;53.098;6.168;2022-11-15T09:34:30;10.70;99.90
55721;DHT22;41626;53.098;6.168;2022-11-15T09:36:56;11.30;99.90
55721;DHT22;41626;53.098;6.168;2022-11-15T09:39:22;10.80;99.90
55721;DHT22;41626;53.098;6.168;2022-11-15T09:44:52;10.90;99.90
55721;DHT22;41626;53.098;6.168;2022-11-15T09:49:45;11.40;99.90
55721;DHT22;41626;53.098;6.168;2022-11-15T09:52:16;11.00;99.90
55721;DHT22;41626;53.098;6.168;2022-11-15T09:54:49;11.50;99.90
55721;DHT22;41626;53.098;6.168;2022-11-15T09:58:00;11.60;99.90
55721;DHT22;41626;53.098;6.168;2022-11-15T10:05:26;11.40;99.90
55721;DHT22;41626;53.098;6.168;2022-11-15T10:08:18;11.60;99.90
55721;DHT22;41626;53.098;6.168;2022-11-15T10:10:55;11.40;99.90
55721;DHT22;41626;53.098;6.168;2022-11-15T10:13:31;11.70;99.90
55721;DHT22;41626;53.098;6.168;2022-11-15T10:19:16;11.70;99.90
55721;DHT22;41626;53.098;6.168;2022-11-15T10:24:25;11.60;99.90
55721;DHT22;41626;53.098;6.168;2022-11-15T10:26:54;11.50;99.90
55721;DHT22;41626;53.098;6.168;2022-11-15T10:29:21;11.30;99.90
55721;DHT22;41626;53.098;6.168;2022-11-15T10:31:47;11.70;99.90
55721;DHT22;41626;53.098;6.168;2022-11-15T10:34:19;11.40;99.90
55721;DHT22;41626;53.098;6.168;2022-11-15T10:36:56;11.30;99.90
55721;DHT22;41626;53.098;6.168;2022-11-15T10:39:22;11.60;99.90
55721;DHT22;41626;53.098;6.168;2022-11-15T10:41:48;11.50;99.90
55721;DHT22;41626;53.098;6.168;2022-11-15T10:46:44;11.30;99.90
55721;DHT22;41626;53.098;6.168;2022-11-15T10:49:24;11.50;99.90
55721;DHT22;41626;53.098;6.168;2022-11-15T10:54:42;11.40;99.90
55721;DHT22;41626;53.098;6.168;2022-11-15T10:57:38;11.40;99.90
55721;DHT22;41626;53.098;6.168;2022-11-15T11:00:30;11.50;99.90
55721;DHT22;41626;53.098;6.168;2022-11-15T11:03:03;11.80;99.90
55721;DHT22;41626;53.098;6.168;2022-11-15T11:05:37;11.80;99.90
55721;DHT22;41626;53.098;6.168;2022-11-15T11:08:23;11.80;99.90
55721;DHT22;41626;53.098;6.168;2022-11-15T11:10:59;11.60;99.90
55721;DHT22;41626;53.098;6.168;2022-11-15T11:13:34;11.80;99.90
55721;DHT22;41626;53.098;6.168;2022-11-15T11:16:25;11.70;99.90
55721;DHT22;41626;53.098;6.168;2022-11-15T11:19:17;11.70;99.90
55721;DHT22;41626;53.098;6.168;2022-11-15T11:21:58;11.80;99.90
55721;DHT22;41626;53.098;6.168;2022-11-15T11:24:59;11.80;99.90
55721;DHT22;41626;53.098;6.168;2022-11-15T11:30:02;11.90;99.90
55721;DHT22;41626;53.098;6.168;2022-11-15T11:35:13;11.90;99.90
55721;DHT22;41626;53.098;6.168;2022-11-15T11:48:42;11.80;99.90
55721;DHT22;41626;53.098;6.168;2022-11-15T11:51:24;11.90;99.90
55721;DHT22;41626;53.098;6.168;2022-11-15T11:53:56;11.80;99.90
55721;DHT22;41626;53.098;6.168;2022-11-15T11:56:31;11.90;99.90
55721;DHT22;41626;53.098;6.168;2022-11-15T11:59:09;12.00;99.90
55721;DHT22;41626;53.098;6.168;2022-11-15T12:01:41;12.00;99.90
55721;DHT22;41626;53.098;6.168;2022-11-15T12:09:21;11.90;99.90
55721;DHT22;41626;53.098;6.168;2022-11-15T12:17:21;12.10;99.90
55721;DHT22;41626;53.098;6.168;2022-11-15T12:19:48;12.00;99.90
55721;DHT22;41626;53.098;6.168;2022-11-15T12:22:24;12.30;99.90
55721;DHT22;41626;53.098;6.168;2022-11-15T12:24:58;12.30;99.90
55721;DHT22;41626;53.098;6.168;2022-11-15T12:27:42;12.30;99.90
55721;DHT22;41626;53.098;6.168;2022-11-15T12:30:17;12.40;99.90
55721;DHT22;41626;53.098;6.168;2022-11-15T12:37:59;12.10;99.90
55721;DHT22;41626;53.098;6.168;2022-11-15T12:40:29;12.20;99.90
55721;DHT22;41626;53.098;6.168;2022-11-15T12:43:33;12.30;99.90
55721;DHT22;41626;53.098;6.168;2022-11-15T12:45:52;12.50;99.90
55721;DHT22;41626;53.098;6.168;2022-11-15T12:56:30;12.80;99.90
55721;DHT22;41626;53.098;6.168;2022-11-15T12:58:58;12.90;99.90
55721;DHT22;41626;53.098;6.168;2022-11-15T13:07:05;12.70;99.90
55721;DHT22;41626;53.098;6.168;2022-11-15T13:20:00;12.40;99.90
55721;DHT22;41626;53.098;6.168;2022-11-15T13:22:39;12.40;99.90
55721;DHT22;41626;53.098;6.168;2022-11-15T13:30:56;12.20;99.90
55721;DHT22;41626;53.098;6.168;2022-11-15T13:33:30;12.20;99.90
55721;DHT22;41626;53.098;6.168;2022-11-15T13:35:58;12.30;99.90
55721;DHT22;41626;53.098;6.168;2022-11-15T13:38:27;12.30;99.90
55721;DHT22;41626;53.098;6.168;2022-11-15T13:40:53;12.20;99.90
55721;DHT22;41626;53.098;6.168;2022-11-15T13:48:33;12.10;99.90
55721;DHT22;41626;53.098;6.168;2022-11-15T13:51:01;12.20;99.90
55721;DHT22;41626;53.098;6.168;2022-11-15T13:53:27;12.10;99.90
55721;DHT22;41626;53.098;6.168;2022-11-15T13:55:54;12.00;99.90
55721;DHT22;41626;53.098;6.168;2022-11-15T13:58:21;12.10;99.90
55721;DHT22;41626;53.098;6.168;2022-11-15T14:00:46;12.00;99.90
55721;DHT22;41626;53.098;6.168;2022-11-15T14:03:18;12.00;99.90
55721;DHT22;41626;53.098;6.168;2022-11-15T14:06:08;11.90;99.90
55721;DHT22;41626;53.098;6.168;2022-11-15T14:08:32;11.90;99.90
55721;DHT22;41626;53.098;6.168;2022-11-15T14:11:17;11.90;99.90
55721;DHT22;41626;53.098;6.168;2022-11-15T14:16:40;11.80;99.90
55721;DHT22;41626;53.098;6.168;2022-11-15T14:19:09;11.80;99.90
55721;DHT22;41626;53.098;6.168;2022-11-15T14:21:35;11.70;99.90
55721;DHT22;41626;53.098;6.168;2022-11-15T14:24:21;11.70;99.90
55721;DHT22;41626;53.098;6.168;2022-11-15T14:26:47;11.70;99.90
55721;DHT22;41626;53.098;6.168;2022-11-15T14:31:49;11.60;99.90
55721;DHT22;41626;53.098;6.168;2022-11-15T14:34:14;11.50;99.90
55721;DHT22;41626;53.098;6.168;2022-11-15T14:36:40;11.50;99.90
55721;DHT22;41626;53.098;6.168;2022-11-15T14:39:06;11.40;99.90
55721;DHT22;41626;53.098;6.168;2022-11-15T14:41:35;11.40;99.90
55721;DHT22;41626;53.098;6.168;2022-11-15T14:44:04;11.30;99.90
55721;DHT22;41626;53.098;6.168;2022-11-15T14:46:30;11.30;99.90
55721;DHT22;41626;53.098;6.168;2022-11-15T14:48:56;11.20;99.90
55721;DHT22;41626;53.098;6.168;2022-11-15T14:51:22;11.30;99.90
55721;DHT22;41626;53.098;6.168;2022-11-15T14:53:48;11.20;99.90
55721;DHT22;41626;53.098;6.168;2022-11-15T14:56:14;11.20;99.90
55721;DHT22;41626;53.098;6.168;2022-11-15T14:58:40;11.20;99.90
55721;DHT22;41626;53.098;6.168;2022-11-15T15:01:23;11.10;99.90
55721;DHT22;41626;53.098;6.168;2022-11-15T15:03:49;11.10;99.90
55721;DHT22;41626;53.098;6.168;2022-11-15T15:06:18;11.00;99.90
55721;DHT22;41626;53.098;6.168;2022-11-15T15:08:44;11.10;99.90
55721;DHT22;41626;53.098;6.168;2022-11-15T15:11:16;10.90;99.90
55721;DHT22;41626;53.098;6.168;2022-11-15T15:13:42;11.00;99.90
55721;DHT22;41626;53.098;6.168;2022-11-15T15:16:08;11.00;99.90
55721;DHT22;41626;53.098;6.168;2022-11-15T15:18:33;11.00;99.90
55721;DHT22;41626;53.098;6.168;2022-11-15T15:21:00;10.90;99.90
55721;DHT22;41626;53.098;6.168;2022-11-15T15:23:32;11.00;99.90
55721;DHT22;41626;53.098;6.168;2022-11-15T15:25:58;11.00;99.90
55721;DHT22;41626;53.098;6.168;2022-11-15T15:28:24;11.00;99.90
55721;DHT22;41626;53.098;6.168;2022-11-15T15:30:50;11.00;99.90
55721;DHT22;41626;53.098;6.168;2022-11-15T15:33:16;10.90;99.90
55721;DHT22;41626;53.098;6.168;2022-11-15T15:35:41;10.90;99.90
55721;DHT22;41626;53.098;6.168;2022-11-15T15:38:11;10.90;99.90
55721;DHT22;41626;53.098;6.168;2022-11-15T15:40:37;10.90;99.90
55721;DHT22;41626;53.098;6.168;2022-11-15T15:43:03;10.80;99.90
55721;DHT22;41626;53.098;6.168;2022-11-15T15:45:29;10.70;99.90
55721;DHT22;41626;53.098;6.168;2022-11-15T15:47:55;10.70;99.90
55721;DHT22;41626;53.098;6.168;2022-11-15T15:50:22;10.70;99.90
55721;DHT22;41626;53.098;6.168;2022-11-15T15:52:53;10.60;99.90
55721;DHT22;41626;53.098;6.168;2022-11-15T15:55:20;10.60;99.90
55721;DHT22;41626;53.098;6.168;2022-11-15T15:57:46;10.50;99.90
55721;DHT22;41626;53.098;6.168;2022-11-15T16:00:12;10.50;99.90
55721;DHT22;41626;53.098;6.168;2022-11-15T16:02:39;10.40;99.90
55721;DHT22;41626;53.098;6.168;2022-11-15T16:05:06;10.40;99.90
55721;DHT22;41626;53.098;6.168;2022-11-15T16:07:32;10.40;99.90
55721;DHT22;41626;53.098;6.168;2022-11-15T16:09:57;10.40;99.90
55721;DHT22;41626;53.098;6.168;2022-11-15T16:12:30;10.40;99.90
55721;DHT22;41626;53.098;6.168;2022-11-15T16:15:02;10.30;99.90
55721;DHT22;41626;53.098;6.168;2022-11-15T16:17:34;10.40;99.90
55721;DHT22;41626;53.098;6.168;2022-11-15T16:20:01;10.40;99.90
55721;DHT22;41626;53.098;6.168;2022-11-15T16:22:44;10.40;99.90
55721;DHT22;41626;53.098;6.168;2022-11-15T16:25:10;10.40;99.90
55721;DHT22;41626;53.098;6.168;2022-11-15T16:27:36;10.40;99.90
55721;DHT22;41626;53.098;6.168;2022-11-15T16:30:04;10.40;99.90
55721;DHT22;41626;53.098;6.168;2022-11-15T16:32:30;10.40;99.90
55721;DHT22;41626;53.098;6.168;2022-11-15T16:35:14;10.40;99.90
55721;DHT22;41626;53.098;6.168;2022-11-15T16:37:40;10.50;99.90
55721;DHT22;41626;53.098;6.168;2022-11-15T16:40:27;10.50;99.90
55721;DHT22;41626;53.098;6.168;2022-11-15T16:42:53;10.40;99.90
55721;DHT22;41626;53.098;6.168;2022-11-15T16:45:21;10.50;99.90
55721;DHT22;41626;53.098;6.168;2022-11-15T16:47:47;10.60;99.90
55721;DHT22;41626;53.098;6.168;2022-11-15T16:50:22;10.60;99.90
55721;DHT22;41626;53.098;6.168;2022-11-15T16:52:55;10.60;99.90
55721;DHT22;41626;53.098;6.168;2022-11-15T16:55:23;10.60;99.90
55721;DHT22;41626;53.098;6.168;2022-11-15T16:57:49;10.60;99.90
55721;DHT22;41626;53.098;6.168;2022-11-15T17:00:16;10.70;99.90
55721;DHT22;41626;53.098;6.168;2022-11-15T17:02:47;10.70;99.90
55721;DHT22;41626;53.098;6.168;2022-11-15T17:05:13;10.70;99.90
55721;DHT22;41626;53.098;6.168;2022-11-15T17:07:39;10.80;99.90
55721;DHT22;41626;53.098;6.168;2022-11-15T17:10:06;10.80;99.90
55721;DHT22;41626;53.098;6.168;2022-11-15T17:12:34;10.80;99.90
55721;DHT22;41626;53.098;6.168;2022-11-15T17:15:00;10.80;99.90
55721;DHT22;41626;53.098;6.168;2022-11-15T17:17:25;10.70;99.90
55721;DHT22;41626;53.098;6.168;2022-11-15T17:19:52;10.80;99.90
55721;DHT22;41626;53.098;6.168;2022-11-15T17:22:18;10.80;99.90
55721;DHT22;41626;53.098;6.168;2022-11-15T17:24:44;10.80;99.90
55721;DHT22;41626;53.098;6.168;2022-11-15T17:27:10;10.80;99.90
55721;DHT22;41626;53.098;6.168;2022-11-15T17:29:35;10.80;99.90
55721;DHT22;41626;53.098;6.168;2022-11-15T17:32:01;10.80;99.90
55721;DHT22;41626;53.098;6.168;2022-11-15T17:34:27;10.80;99.90
55721;DHT22;41626;53.098;6.168;2022-11-15T17:36:52;10.80;99.90
55721;DHT22;41626;53.098;6.168;2022-11-15T17:39:18;10.80;99.90